sensor_id;sensor_type;location;lat;lon;timestamp;P1;durP1;ratioP1;P2;durP2;ratioP2
9938;SDS011;5008;50.656;7.188;2024-02-15T05:00:18;4.27;;;3.33;;
9938;SDS011;5008;50.656;7.188;2024-02-15T05:02:46;6.00;;;3.00;;
9938;SDS011;5008;50.656;7.188;2024-02-15T05:05:14;3.93;;;3.00;;
9938;SDS011;5008;50.656;7.188;2024-02-15T05:07:41;3.50;;;3.20;;
9938;SDS011;5008;50.656;7.188;2024-02-15T05:10:08;4.60;;;3.10;;
9938;SDS011;5008;50.656;7.188;2024-02-15T05:12:36;5.50;;;3.60;;
9938;SDS011;5008;50.656;7.188;2024-02-15T05:15:04;3.67;;;3.27;;
9938;SDS011;5008;50.656;7.188;2024-02-15T05:17:36;5.00;;;3.17;;
9938;SDS011;5008;50.656;7.188;2024-02-15T05:20:06;5.63;;;3.17;;
9938;SDS011;5008;50.656;7.188;2024-02-15T05:22:36;3.87;;;3.23;;
9938;SDS011;5008;50.656;7.188;2024-02-15T05:25:04;6.47;;;3.10;;
9938;SDS011;5008;50.656;7.188;2024-02-15T05:27:31;4.27;;;3.23;;
9938;SDS011;5008;50.656;7.188;2024-02-15T05:29:58;5.40;;;2.90;;
9938;SDS011;5008;50.656;7.188;2024-02-15T05:32:25;3.23;;;2.93;;
9938;SDS011;5008;50.656;7.188;2024-02-15T05:34:53;3.60;;;2.73;;
9938;SDS011;5008;50.656;7.188;2024-02-15T05:37:20;3.20;;;2.90;;
9938;SDS011;5008;50.656;7.188;2024-02-15T05:39:48;4.17;;;3.17;;
9938;SDS011;5008;50.656;7.188;2024-02-15T05:42:20;5.20;;;2.93;;
9938;SDS011;5008;50.656;7.188;2024-02-15T05:44:47;4.63;;;2.90;;
9938;SDS011;5008;50.656;7.188;2024-02-15T05:47:15;4.33;;;2.73;;
9938;SDS011;5008;50.656;7.188;2024-02-15T05:49:42;4.00;;;3.10;;
9938;SDS011;5008;50.656;7.188;2024-02-15T05:52:11;4.20;;;2.87;;
9938;SDS011;5008;50.656;7.188;2024-02-15T05:54:38;4.13;;;3.50;;
9938;SDS011;5008;50.656;7.188;2024-02-15T05:57:07;4.70;;;3.00;;
9938;SDS011;5008;50.656;7.188;2024-02-15T05:59:34;5.97;;;3.13;;
9938;SDS011;5008;50.656;7.188;2024-02-15T06:02:00;5.53;;;3.23;;
9938;SDS011;5008;50.656;7.188;2024-02-15T06:04:28;4.83;;;3.00;;
9938;SDS011;5008;50.656;7.188;2024-02-15T06:06:55;4.57;;;3.30;;
9938;SDS011;5008;50.656;7.188;2024-02-15T06:09:27;6.00;;;2.90;;
9938;SDS011;5008;50.656;7.188;2024-02-15T06:11:55;4.90;;;3.03;;
9938;SDS011;5008;50.656;7.188;2024-02-15T06:14:22;5.03;;;3.00;;
9938;SDS011;5008;50.656;7.188;2024-02-15T06:16:49;5.67;;;3.20;;
9938;SDS011;5008;50.656;7.188;2024-02-15T06:19:17;5.03;;;3.37;;
9938;SDS011;5008;50.656;7.188;2024-02-15T06:21:44;4.53;;;2.77;;
9938;SDS011;5008;50.656;7.188;2024-02-15T06:24:11;3.97;;;3.20;;
9938;SDS011;5008;50.656;7.188;2024-02-15T06:26:40;5.13;;;3.53;;
9938;SDS011;5008;50.656;7.188;2024-02-15T06:29:07;4.70;;;2.83;;
9938;SDS011;5008;50.656;7.188;2024-02-15T06:31:51;4.67;;;3.40;;
9938;SDS011;5008;50.656;7.188;2024-02-15T06:34:36;5.50;;;3.10;;
9938;SDS011;5008;50.656;7.188;2024-02-15T06:40:23;6.47;;;2.97;;
9938;SDS011;5008;50.656;7.188;2024-02-15T06:42:51;3.53;;;3.23;;
9938;SDS011;5008;50.656;7.188;2024-02-15T06:45:18;5.27;;;3.50;;
9938;SDS011;5008;50.656;7.188;2024-02-15T06:47:44;6.43;;;3.00;;
9938;SDS011;5008;50.656;7.188;2024-02-15T06:50:11;6.27;;;3.40;;
9938;SDS011;5008;50.656;7.188;2024-02-15T06:52:39;4.77;;;3.03;;
9938;SDS011;5008;50.656;7.188;2024-02-15T06:55:06;4.63;;;3.10;;
9938;SDS011;5008;50.656;7.188;2024-02-15T06:57:36;3.60;;;2.70;;
9938;SDS011;5008;50.656;7.188;2024-02-15T07:00:08;7.23;;;3.33;;
9938;SDS011;5008;50.656;7.188;2024-02-15T07:02:39;4.57;;;2.93;;
9938;SDS011;5008;50.656;7.188;2024-02-15T07:05:09;3.87;;;3.20;;
9938;SDS011;5008;50.656;7.188;2024-02-15T07:07:36;4.87;;;3.23;;
9938;SDS011;5008;50.656;7.188;2024-02-15T07:10:04;5.33;;;2.93;;
9938;SDS011;5008;50.656;7.188;2024-02-15T07:12:31;3.90;;;2.97;;
9938;SDS011;5008;50.656;7.188;2024-02-15T07:14:58;3.60;;;2.50;;
9938;SDS011;5008;50.656;7.188;2024-02-15T07:17:27;5.73;;;3.07;;
9938;SDS011;5008;50.656;7.188;2024-02-15T07:19:54;4.13;;;2.73;;
9938;SDS011;5008;50.656;7.188;2024-02-15T07:22:21;5.00;;;3.00;;
9938;SDS011;5008;50.656;7.188;2024-02-15T07:24:48;6.03;;;3.27;;
9938;SDS011;5008;50.656;7.188;2024-02-15T07:27:14;5.00;;;2.93;;
9938;SDS011;5008;50.656;7.188;2024-02-15T07:29:41;3.40;;;2.73;;
9938;SDS011;5008;50.656;7.188;2024-02-15T07:32:08;5.30;;;2.70;;
9938;SDS011;5008;50.656;7.188;2024-02-15T07:34:36;3.40;;;2.73;;
9938;SDS011;5008;50.656;7.188;2024-02-15T07:37:03;5.77;;;2.83;;
9938;SDS011;5008;50.656;7.188;2024-02-15T07:39:30;6.00;;;2.97;;
9938;SDS011;5008;50.656;7.188;2024-02-15T07:41:57;2.63;;;2.43;;
9938;SDS011;5008;50.656;7.188;2024-02-15T07:44:24;4.97;;;2.77;;
9938;SDS011;5008;50.656;7.188;2024-02-15T07:46:55;5.50;;;2.70;;
9938;SDS011;5008;50.656;7.188;2024-02-15T07:49:21;5.97;;;2.60;;
9938;SDS011;5008;50.656;7.188;2024-02-15T07:51:51;5.80;;;2.77;;
9938;SDS011;5008;50.656;7.188;2024-02-15T07:54:18;3.70;;;2.40;;
9938;SDS011;5008;50.656;7.188;2024-02-15T07:56:47;4.17;;;2.70;;
9938;SDS011;5008;50.656;7.188;2024-02-15T07:59:14;7.47;;;2.47;;
9938;SDS011;5008;50.656;7.188;2024-02-15T08:01:41;5.50;;;2.83;;
9938;SDS011;5008;50.656;7.188;2024-02-15T08:04:08;3.10;;;2.30;;
9938;SDS011;5008;50.656;7.188;2024-02-15T08:06:35;4.47;;;2.40;;
9938;SDS011;5008;50.656;7.188;2024-02-15T08:09:04;3.67;;;2.23;;
9938;SDS011;5008;50.656;7.188;2024-02-15T08:11:31;6.13;;;2.27;;
9938;SDS011;5008;50.656;7.188;2024-02-15T08:13:58;2.87;;;2.40;;
9938;SDS011;5008;50.656;7.188;2024-02-15T08:16:25;5.30;;;2.70;;
9938;SDS011;5008;50.656;7.188;2024-02-15T08:18:53;2.80;;;2.10;;
9938;SDS011;5008;50.656;7.188;2024-02-15T08:21:24;3.27;;;2.30;;
9938;SDS011;5008;50.656;7.188;2024-02-15T08:23:52;2.80;;;2.07;;
9938;SDS011;5008;50.656;7.188;2024-02-15T08:26:21;4.90;;;2.30;;
9938;SDS011;5008;50.656;7.188;2024-02-15T08:28:48;4.43;;;2.10;;
9938;SDS011;5008;50.656;7.188;2024-02-15T08:31:15;3.70;;;2.30;;
9938;SDS011;5008;50.656;7.188;2024-02-15T08:33:42;2.10;;;1.90;;
9938;SDS011;5008;50.656;7.188;2024-02-15T08:36:09;2.70;;;2.03;;
9938;SDS011;5008;50.656;7.188;2024-02-15T08:38:38;4.47;;;2.20;;
9938;SDS011;5008;50.656;7.188;2024-02-15T08:41:06;2.87;;;2.27;;
9938;SDS011;5008;50.656;7.188;2024-02-15T08:43:35;4.27;;;2.10;;
9938;SDS011;5008;50.656;7.188;2024-02-15T08:46:05;3.63;;;2.27;;
9938;SDS011;5008;50.656;7.188;2024-02-15T08:48:32;3.60;;;2.30;;
9938;SDS011;5008;50.656;7.188;2024-02-15T08:50:59;3.30;;;2.10;;
9938;SDS011;5008;50.656;7.188;2024-02-15T08:53:25;4.13;;;2.00;;
9938;SDS011;5008;50.656;7.188;2024-02-15T08:55:52;4.53;;;2.47;;
9938;SDS011;5008;50.656;7.188;2024-02-15T08:58:19;3.30;;;2.07;;
9938;SDS011;5008;50.656;7.188;2024-02-15T09:00:47;5.97;;;2.40;;
9938;SDS011;5008;50.656;7.188;2024-02-15T09:03:14;3.57;;;2.23;;
9938;SDS011;5008;50.656;7.188;2024-02-15T09:05:41;2.80;;;2.00;;
9938;SDS011;5008;50.656;7.188;2024-02-15T09:08:07;5.40;;;2.60;;
9938;SDS011;5008;50.656;7.188;2024-02-15T09:10:34;4.17;;;2.40;;
9938;SDS011;5008;50.656;7.188;2024-02-15T09:13:04;3.37;;;1.80;;
9938;SDS011;5008;50.656;7.188;2024-02-15T09:15:31;5.20;;;1.87;;
9938;SDS011;5008;50.656;7.188;2024-02-15T09:17:59;3.30;;;2.00;;
9938;SDS011;5008;50.656;7.188;2024-02-15T09:20:26;2.80;;;1.97;;
9938;SDS011;5008;50.656;7.188;2024-02-15T09:22:54;3.70;;;2.40;;
9938;SDS011;5008;50.656;7.188;2024-02-15T09:25:22;2.57;;;1.93;;
9938;SDS011;5008;50.656;7.188;2024-02-15T09:27:49;2.20;;;2.00;;
9938;SDS011;5008;50.656;7.188;2024-02-15T09:30:19;2.33;;;1.97;;
9938;SDS011;5008;50.656;7.188;2024-02-15T09:32:46;3.20;;;2.00;;
9938;SDS011;5008;50.656;7.188;2024-02-15T09:35:14;3.30;;;2.17;;
9938;SDS011;5008;50.656;7.188;2024-02-15T09:37:44;4.40;;;2.37;;
9938;SDS011;5008;50.656;7.188;2024-02-15T09:40:13;6.47;;;2.53;;
9938;SDS011;5008;50.656;7.188;2024-02-15T09:42:41;2.63;;;2.40;;
9938;SDS011;5008;50.656;7.188;2024-02-15T09:45:10;5.50;;;2.20;;
9938;SDS011;5008;50.656;7.188;2024-02-15T09:47:39;2.57;;;1.90;;
9938;SDS011;5008;50.656;7.188;2024-02-15T09:50:07;4.53;;;2.20;;
9938;SDS011;5008;50.656;7.188;2024-02-15T09:52:37;4.10;;;2.40;;
9938;SDS011;5008;50.656;7.188;2024-02-15T09:55:06;2.80;;;2.13;;
9938;SDS011;5008;50.656;7.188;2024-02-15T09:57:36;3.47;;;2.00;;
9938;SDS011;5008;50.656;7.188;2024-02-15T10:00:03;4.60;;;2.60;;
9938;SDS011;5008;50.656;7.188;2024-02-15T10:02:32;4.57;;;2.20;;
9938;SDS011;5008;50.656;7.188;2024-02-15T10:05:01;2.50;;;2.30;;
9938;SDS011;5008;50.656;7.188;2024-02-15T10:07:28;3.03;;;2.20;;
9938;SDS011;5008;50.656;7.188;2024-02-15T10:09:56;2.37;;;2.10;;
9938;SDS011;5008;50.656;7.188;2024-02-15T10:12:41;2.47;;;2.27;;
9938;SDS011;5008;50.656;7.188;2024-02-15T10:15:08;3.60;;;2.63;;
9938;SDS011;5008;50.656;7.188;2024-02-15T10:17:35;2.53;;;2.20;;
9938;SDS011;5008;50.656;7.188;2024-02-15T10:20:02;3.50;;;2.10;;
9938;SDS011;5008;50.656;7.188;2024-02-15T10:22:30;3.37;;;2.40;;
9938;SDS011;5008;50.656;7.188;2024-02-15T10:25:11;2.77;;;2.40;;
9938;SDS011;5008;50.656;7.188;2024-02-15T10:27:38;3.47;;;2.13;;
9938;SDS011;5008;50.656;7.188;2024-02-15T10:30:15;2.60;;;1.87;;
9938;SDS011;5008;50.656;7.188;2024-02-15T10:32:43;3.40;;;2.40;;
9938;SDS011;5008;50.656;7.188;2024-02-15T10:35:10;2.67;;;2.47;;
9938;SDS011;5008;50.656;7.188;2024-02-15T10:37:47;2.57;;;2.37;;
9938;SDS011;5008;50.656;7.188;2024-02-15T10:40:18;2.70;;;2.27;;
9938;SDS011;5008;50.656;7.188;2024-02-15T10:42:46;3.20;;;2.43;;
9938;SDS011;5008;50.656;7.188;2024-02-15T10:45:15;2.57;;;2.07;;
9938;SDS011;5008;50.656;7.188;2024-02-15T10:47:42;2.83;;;2.33;;
9938;SDS011;5008;50.656;7.188;2024-02-15T10:50:11;3.17;;;2.30;;
9938;SDS011;5008;50.656;7.188;2024-02-15T10:52:40;2.10;;;1.50;;
9938;SDS011;5008;50.656;7.188;2024-02-15T10:55:14;3.20;;;2.03;;
9938;SDS011;5008;50.656;7.188;2024-02-15T10:57:48;3.67;;;2.27;;
9938;SDS011;5008;50.656;7.188;2024-02-15T11:00:18;3.63;;;2.27;;
9938;SDS011;5008;50.656;7.188;2024-02-15T11:03:01;2.83;;;2.20;;
9938;SDS011;5008;50.656;7.188;2024-02-15T11:05:31;1.70;;;1.37;;
9938;SDS011;5008;50.656;7.188;2024-02-15T11:07:59;4.63;;;2.20;;
9938;SDS011;5008;50.656;7.188;2024-02-15T11:10:30;2.77;;;2.47;;
9938;SDS011;5008;50.656;7.188;2024-02-15T11:12:57;3.40;;;2.03;;
9938;SDS011;5008;50.656;7.188;2024-02-15T11:15:39;2.60;;;2.40;;
9938;SDS011;5008;50.656;7.188;2024-02-15T11:18:07;4.57;;;2.30;;
9938;SDS011;5008;50.656;7.188;2024-02-15T11:20:46;2.57;;;2.37;;
9938;SDS011;5008;50.656;7.188;2024-02-15T11:23:14;2.30;;;2.10;;
9938;SDS011;5008;50.656;7.188;2024-02-15T11:25:53;2.37;;;2.17;;
9938;SDS011;5008;50.656;7.188;2024-02-15T11:34:43;2.27;;;1.87;;
9938;SDS011;5008;50.656;7.188;2024-02-15T11:46:23;3.85;;;2.00;;
9938;SDS011;5008;50.656;7.188;2024-02-15T11:48:54;2.17;;;1.97;;
9938;SDS011;5008;50.656;7.188;2024-02-15T11:51:28;2.30;;;2.10;;
9938;SDS011;5008;50.656;7.188;2024-02-15T11:54:03;3.60;;;2.53;;
9938;SDS011;5008;50.656;7.188;2024-02-15T11:56:33;2.67;;;2.00;;
9938;SDS011;5008;50.656;7.188;2024-02-15T11:59:19;4.50;;;2.00;;
9938;SDS011;5008;50.656;7.188;2024-02-15T12:01:57;2.33;;;2.10;;
9938;SDS011;5008;50.656;7.188;2024-02-15T12:04:41;2.28;;;2.00;;
9938;SDS011;5008;50.656;7.188;2024-02-15T12:07:26;3.22;;;2.53;;
9938;SDS011;5008;50.656;7.188;2024-02-15T12:10:15;3.90;;;2.38;;
9938;SDS011;5008;50.656;7.188;2024-02-15T12:13:01;4.82;;;2.20;;
9938;SDS011;5008;50.656;7.188;2024-02-15T12:15:57;2.63;;;2.10;;
9938;SDS011;5008;50.656;7.188;2024-02-15T12:18:42;2.70;;;2.22;;
9938;SDS011;5008;50.656;7.188;2024-02-15T12:21:12;11.88;;;7.07;;
9938;SDS011;5008;50.656;7.188;2024-02-15T12:23:42;6.75;;;5.53;;
9938;SDS011;5008;50.656;7.188;2024-02-15T12:26:10;3.58;;;2.97;;
9938;SDS011;5008;50.656;7.188;2024-02-15T12:28:40;3.30;;;2.90;;
9938;SDS011;5008;50.656;7.188;2024-02-15T12:31:08;5.90;;;3.22;;
9938;SDS011;5008;50.656;7.188;2024-02-15T12:33:38;2.10;;;1.80;;
9938;SDS011;5008;50.656;7.188;2024-02-15T12:36:05;4.78;;;2.30;;
9938;SDS011;5008;50.656;7.188;2024-02-15T12:38:33;2.17;;;1.98;;
9938;SDS011;5008;50.656;7.188;2024-02-15T12:41:02;2.35;;;1.90;;
9938;SDS011;5008;50.656;7.188;2024-02-15T12:43:29;3.10;;;1.50;;
9938;SDS011;5008;50.656;7.188;2024-02-15T12:45:58;1.98;;;1.77;;
9938;SDS011;5008;50.656;7.188;2024-02-15T12:48:24;2.65;;;1.55;;
9938;SDS011;5008;50.656;7.188;2024-02-15T12:50:51;2.75;;;1.92;;
9938;SDS011;5008;50.656;7.188;2024-02-15T12:53:22;2.92;;;2.08;;
9938;SDS011;5008;50.656;7.188;2024-02-15T12:55:52;2.08;;;1.25;;
9938;SDS011;5008;50.656;7.188;2024-02-15T12:58:21;2.10;;;1.60;;
9938;SDS011;5008;50.656;7.188;2024-02-15T13:00:49;2.70;;;1.48;;
9938;SDS011;5008;50.656;7.188;2024-02-15T13:03:22;2.60;;;1.40;;
9938;SDS011;5008;50.656;7.188;2024-02-15T13:05:49;2.20;;;1.58;;
9938;SDS011;5008;50.656;7.188;2024-02-15T13:08:16;3.70;;;1.73;;
9938;SDS011;5008;50.656;7.188;2024-02-15T13:10:43;4.25;;;1.60;;
9938;SDS011;5008;50.656;7.188;2024-02-15T13:13:10;3.38;;;1.63;;
9938;SDS011;5008;50.656;7.188;2024-02-15T13:15:39;2.97;;;1.65;;
9938;SDS011;5008;50.656;7.188;2024-02-15T13:18:06;1.80;;;1.58;;
9938;SDS011;5008;50.656;7.188;2024-02-15T13:20:36;3.75;;;1.63;;
9938;SDS011;5008;50.656;7.188;2024-02-15T13:23:03;1.52;;;1.35;;
9938;SDS011;5008;50.656;7.188;2024-02-15T13:25:34;2.17;;;1.40;;
9938;SDS011;5008;50.656;7.188;2024-02-15T13:28:02;1.67;;;1.58;;
9938;SDS011;5008;50.656;7.188;2024-02-15T13:30:30;2.90;;;1.45;;
9938;SDS011;5008;50.656;7.188;2024-02-15T13:32:57;3.22;;;1.75;;
9938;SDS011;5008;50.656;7.188;2024-02-15T13:35:24;2.90;;;1.20;;
9938;SDS011;5008;50.656;7.188;2024-02-15T13:37:53;3.70;;;1.75;;
9938;SDS011;5008;50.656;7.188;2024-02-15T13:40:23;3.28;;;1.90;;
9938;SDS011;5008;50.656;7.188;2024-02-15T13:42:51;1.95;;;1.40;;
9938;SDS011;5008;50.656;7.188;2024-02-15T13:45:19;2.03;;;1.50;;
9938;SDS011;5008;50.656;7.188;2024-02-15T13:47:47;2.60;;;1.40;;
9938;SDS011;5008;50.656;7.188;2024-02-15T13:50:15;2.00;;;1.23;;
9938;SDS011;5008;50.656;7.188;2024-02-15T13:52:43;2.75;;;1.38;;
9938;SDS011;5008;50.656;7.188;2024-02-15T13:55:12;1.58;;;1.20;;
9938;SDS011;5008;50.656;7.188;2024-02-15T13:57:40;1.48;;;1.35;;
9938;SDS011;5008;50.656;7.188;2024-02-15T14:00:08;2.10;;;1.47;;
9938;SDS011;5008;50.656;7.188;2024-02-15T14:02:46;2.80;;;1.55;;
9938;SDS011;5008;50.656;7.188;2024-02-15T14:05:13;2.70;;;1.60;;
9938;SDS011;5008;50.656;7.188;2024-02-15T14:07:44;2.85;;;1.27;;
9938;SDS011;5008;50.656;7.188;2024-02-15T14:10:16;2.85;;;1.27;;
9938;SDS011;5008;50.656;7.188;2024-02-15T14:12:44;1.27;;;1.10;;
9938;SDS011;5008;50.656;7.188;2024-02-15T14:15:11;2.88;;;1.23;;
9938;SDS011;5008;50.656;7.188;2024-02-15T14:17:38;2.40;;;1.40;;
9938;SDS011;5008;50.656;7.188;2024-02-15T14:20:06;3.17;;;1.48;;
9938;SDS011;5008;50.656;7.188;2024-02-15T14:22:38;2.65;;;1.55;;
9938;SDS011;5008;50.656;7.188;2024-02-15T14:25:05;2.67;;;1.60;;
9938;SDS011;5008;50.656;7.188;2024-02-15T14:27:34;3.95;;;1.52;;
9938;SDS011;5008;50.656;7.188;2024-02-15T14:30:01;3.60;;;1.50;;
9938;SDS011;5008;50.656;7.188;2024-02-15T14:32:45;1.35;;;1.20;;
9938;SDS011;5008;50.656;7.188;2024-02-15T14:35:29;4.43;;;1.60;;
9938;SDS011;5008;50.656;7.188;2024-02-15T14:38:01;1.27;;;1.13;;
9938;SDS011;5008;50.656;7.188;2024-02-15T14:40:31;2.53;;;1.20;;
9938;SDS011;5008;50.656;7.188;2024-02-15T14:43:00;2.10;;;1.35;;
9938;SDS011;5008;50.656;7.188;2024-02-15T14:45:27;1.45;;;1.25;;
9938;SDS011;5008;50.656;7.188;2024-02-15T14:47:54;1.33;;;1.20;;
9938;SDS011;5008;50.656;7.188;2024-02-15T14:50:21;3.55;;;1.20;;
9938;SDS011;5008;50.656;7.188;2024-02-15T14:52:48;1.30;;;1.17;;
9938;SDS011;5008;50.656;7.188;2024-02-15T14:55:17;2.53;;;1.23;;
9938;SDS011;5008;50.656;7.188;2024-02-15T14:57:44;2.75;;;1.08;;
9938;SDS011;5008;50.656;7.188;2024-02-15T15:00:13;2.13;;;1.27;;
9938;SDS011;5008;50.656;7.188;2024-02-15T15:02:42;1.50;;;1.40;;
9938;SDS011;5008;50.656;7.188;2024-02-15T15:05:09;3.70;;;2.00;;
9938;SDS011;5008;50.656;7.188;2024-02-15T15:07:54;1.88;;;1.50;;
9938;SDS011;5008;50.656;7.188;2024-02-15T15:10:38;1.33;;;1.20;;
9938;SDS011;5008;50.656;7.188;2024-02-15T15:13:24;1.95;;;1.13;;
9938;SDS011;5008;50.656;7.188;2024-02-15T15:15:53;1.92;;;1.20;;
9938;SDS011;5008;50.656;7.188;2024-02-15T15:18:19;2.63;;;1.50;;
9938;SDS011;5008;50.656;7.188;2024-02-15T15:20:46;2.58;;;1.20;;
9938;SDS011;5008;50.656;7.188;2024-02-15T15:23:13;1.52;;;1.15;;
9938;SDS011;5008;50.656;7.188;2024-02-15T15:25:41;2.08;;;1.27;;
9938;SDS011;5008;50.656;7.188;2024-02-15T15:28:08;1.70;;;1.15;;
9938;SDS011;5008;50.656;7.188;2024-02-15T15:30:35;3.00;;;1.37;;
9938;SDS011;5008;50.656;7.188;2024-02-15T15:33:04;1.67;;;1.25;;
9938;SDS011;5008;50.656;7.188;2024-02-15T15:35:32;2.13;;;1.37;;
9938;SDS011;5008;50.656;7.188;2024-02-15T15:37:59;1.98;;;1.88;;
9938;SDS011;5008;50.656;7.188;2024-02-15T15:40:26;1.57;;;1.40;;
9938;SDS011;5008;50.656;7.188;2024-02-15T15:42:54;2.23;;;1.53;;
9938;SDS011;5008;50.656;7.188;2024-02-15T15:45:21;2.10;;;1.43;;
9938;SDS011;5008;50.656;7.188;2024-02-15T15:47:48;2.23;;;1.47;;
9938;SDS011;5008;50.656;7.188;2024-02-15T15:50:17;3.20;;;1.53;;
9938;SDS011;5008;50.656;7.188;2024-02-15T15:52:44;1.07;;;1.07;;
9938;SDS011;5008;50.656;7.188;2024-02-15T15:55:11;2.77;;;1.60;;
9938;SDS011;5008;50.656;7.188;2024-02-15T15:57:38;1.50;;;1.40;;
9938;SDS011;5008;50.656;7.188;2024-02-15T16:00:06;3.00;;;1.60;;
9938;SDS011;5008;50.656;7.188;2024-02-15T16:02:37;2.87;;;1.27;;
9938;SDS011;5008;50.656;7.188;2024-02-15T16:05:05;3.97;;;1.53;;
9938;SDS011;5008;50.656;7.188;2024-02-15T16:07:34;4.43;;;2.75;;
9938;SDS011;5008;50.656;7.188;2024-02-15T16:10:01;1.77;;;1.17;;
9938;SDS011;5008;50.656;7.188;2024-02-15T16:12:27;2.00;;;1.30;;
9938;SDS011;5008;50.656;7.188;2024-02-15T16:14:54;2.40;;;1.38;;
9938;SDS011;5008;50.656;7.188;2024-02-15T16:17:21;1.85;;;1.42;;
9938;SDS011;5008;50.656;7.188;2024-02-15T16:19:48;1.65;;;1.52;;
9938;SDS011;5008;50.656;7.188;2024-02-15T16:22:15;2.95;;;1.70;;
9938;SDS011;5008;50.656;7.188;2024-02-15T16:24:43;2.53;;;1.27;;
9938;SDS011;5008;50.656;7.188;2024-02-15T16:27:10;3.70;;;2.87;;
9938;SDS011;5008;50.656;7.188;2024-02-15T16:29:36;3.40;;;2.67;;
9938;SDS011;5008;50.656;7.188;2024-02-15T16:32:03;1.77;;;1.30;;
9938;SDS011;5008;50.656;7.188;2024-02-15T16:34:33;2.30;;;1.40;;
9938;SDS011;5008;50.656;7.188;2024-02-15T16:37:00;5.23;;;4.37;;
9938;SDS011;5008;50.656;7.188;2024-02-15T16:39:29;4.97;;;2.38;;
9938;SDS011;5008;50.656;7.188;2024-02-15T16:41:57;2.40;;;1.70;;
9938;SDS011;5008;50.656;7.188;2024-02-15T16:44:24;1.70;;;1.60;;
9938;SDS011;5008;50.656;7.188;2024-02-15T16:46:51;3.13;;;2.70;;
9938;SDS011;5008;50.656;7.188;2024-02-15T16:49:18;2.97;;;1.90;;
9938;SDS011;5008;50.656;7.188;2024-02-15T16:51:45;3.43;;;1.70;;
9938;SDS011;5008;50.656;7.188;2024-02-15T16:54:12;3.40;;;2.30;;
9938;SDS011;5008;50.656;7.188;2024-02-15T16:56:39;4.83;;;2.57;;
9938;SDS011;5008;50.656;7.188;2024-02-15T16:59:08;3.67;;;2.93;;
9938;SDS011;5008;50.656;7.188;2024-02-15T17:01:36;3.30;;;1.50;;
9938;SDS011;5008;50.656;7.188;2024-02-15T17:04:03;3.47;;;2.57;;
9938;SDS011;5008;50.656;7.188;2024-02-15T17:06:33;4.43;;;2.13;;
9938;SDS011;5008;50.656;7.188;2024-02-15T17:09:00;4.57;;;4.00;;
9938;SDS011;5008;50.656;7.188;2024-02-15T17:11:28;4.43;;;1.90;;
9938;SDS011;5008;50.656;7.188;2024-02-15T17:13:55;2.30;;;1.57;;
9938;SDS011;5008;50.656;7.188;2024-02-15T17:16:27;3.50;;;1.77;;
9938;SDS011;5008;50.656;7.188;2024-02-15T17:18:54;3.80;;;3.10;;
9938;SDS011;5008;50.656;7.188;2024-02-15T17:21:21;1.90;;;1.70;;
9938;SDS011;5008;50.656;7.188;2024-02-15T17:23:48;3.47;;;1.43;;
9938;SDS011;5008;50.656;7.188;2024-02-15T17:26:15;3.80;;;3.40;;
9938;SDS011;5008;50.656;7.188;2024-02-15T17:28:42;4.73;;;3.43;;
9938;SDS011;5008;50.656;7.188;2024-02-15T17:31:12;3.07;;;2.10;;
9938;SDS011;5008;50.656;7.188;2024-02-15T17:33:41;4.07;;;2.13;;
9938;SDS011;5008;50.656;7.188;2024-02-15T17:36:08;2.53;;;1.90;;
9938;SDS011;5008;50.656;7.188;2024-02-15T17:38:36;4.90;;;3.20;;
9938;SDS011;5008;50.656;7.188;2024-02-15T17:41:03;5.07;;;2.50;;
9938;SDS011;5008;50.656;7.188;2024-02-15T17:43:30;4.03;;;2.93;;
9938;SDS011;5008;50.656;7.188;2024-02-15T17:45:57;4.07;;;2.33;;
9938;SDS011;5008;50.656;7.188;2024-02-15T17:48:24;3.27;;;2.20;;
9938;SDS011;5008;50.656;7.188;2024-02-15T17:50:54;3.70;;;2.73;;
9938;SDS011;5008;50.656;7.188;2024-02-15T17:53:21;2.93;;;2.40;;
9938;SDS011;5008;50.656;7.188;2024-02-15T17:55:48;2.00;;;1.80;;
9938;SDS011;5008;50.656;7.188;2024-02-15T17:58:17;2.20;;;1.87;;
9938;SDS011;5008;50.656;7.188;2024-02-15T18:00:44;2.93;;;1.93;;
9938;SDS011;5008;50.656;7.188;2024-02-15T18:03:11;2.43;;;2.17;;
9938;SDS011;5008;50.656;7.188;2024-02-15T18:05:38;3.00;;;2.50;;
9938;SDS011;5008;50.656;7.188;2024-02-15T18:08:12;3.00;;;2.07;;
9938;SDS011;5008;50.656;7.188;2024-02-15T18:10:39;2.73;;;2.50;;
9938;SDS011;5008;50.656;7.188;2024-02-15T18:13:06;3.33;;;2.20;;
9938;SDS011;5008;50.656;7.188;2024-02-15T18:15:34;4.13;;;2.30;;
9938;SDS011;5008;50.656;7.188;2024-02-15T18:18:04;3.73;;;2.00;;
9938;SDS011;5008;50.656;7.188;2024-02-15T18:20:31;2.87;;;1.83;;
9938;SDS011;5008;50.656;7.188;2024-02-15T18:22:58;3.47;;;2.33;;
9938;SDS011;5008;50.656;7.188;2024-02-15T18:25:27;4.20;;;3.20;;
9938;SDS011;5008;50.656;7.188;2024-02-15T18:27:54;2.50;;;2.13;;
9938;SDS011;5008;50.656;7.188;2024-02-15T18:30:20;2.83;;;2.37;;
9938;SDS011;5008;50.656;7.188;2024-02-15T18:32:54;2.73;;;2.20;;
9938;SDS011;5008;50.656;7.188;2024-02-15T18:35:21;4.27;;;3.00;;
9938;SDS011;5008;50.656;7.188;2024-02-15T18:37:49;5.10;;;3.87;;
9938;SDS011;5008;50.656;7.188;2024-02-15T18:40:16;2.63;;;2.10;;
9938;SDS011;5008;50.656;7.188;2024-02-15T18:42:45;3.13;;;2.23;;
9938;SDS011;5008;50.656;7.188;2024-02-15T18:45:13;2.63;;;1.83;;
9938;SDS011;5008;50.656;7.188;2024-02-15T18:47:42;2.23;;;1.90;;
9938;SDS011;5008;50.656;7.188;2024-02-15T18:50:09;5.97;;;2.20;;
9938;SDS011;5008;50.656;7.188;2024-02-15T18:52:36;4.17;;;2.90;;
9938;SDS011;5008;50.656;7.188;2024-02-15T18:55:03;3.73;;;2.53;;
9938;SDS011;5008;50.656;7.188;2024-02-15T18:57:30;1.73;;;1.63;;
9938;SDS011;5008;50.656;7.188;2024-02-15T18:59:58;2.93;;;2.10;;
9938;SDS011;5008;50.656;7.188;2024-02-15T19:02:25;1.77;;;1.63;;
9938;SDS011;5008;50.656;7.188;2024-02-15T19:04:53;3.63;;;2.10;;
9938;SDS011;5008;50.656;7.188;2024-02-15T19:07:20;3.63;;;2.63;;
9938;SDS011;5008;50.656;7.188;2024-02-15T19:09:47;2.10;;;1.83;;
9938;SDS011;5008;50.656;7.188;2024-02-15T19:12:15;3.60;;;1.90;;
9938;SDS011;5008;50.656;7.188;2024-02-15T19:14:41;2.47;;;1.90;;
9938;SDS011;5008;50.656;7.188;2024-02-15T19:17:10;3.17;;;2.53;;
9938;SDS011;5008;50.656;7.188;2024-02-15T19:19:36;2.00;;;1.73;;
9938;SDS011;5008;50.656;7.188;2024-02-15T19:22:03;3.50;;;2.23;;
9938;SDS011;5008;50.656;7.188;2024-02-15T19:24:30;3.43;;;2.20;;
9938;SDS011;5008;50.656;7.188;2024-02-15T19:26:57;2.07;;;1.80;;
9938;SDS011;5008;50.656;7.188;2024-02-15T19:29:24;2.83;;;1.70;;
9938;SDS011;5008;50.656;7.188;2024-02-15T19:31:50;2.00;;;1.70;;
9938;SDS011;5008;50.656;7.188;2024-02-15T19:34:19;2.50;;;1.80;;
9938;SDS011;5008;50.656;7.188;2024-02-15T19:36:47;3.63;;;1.80;;
9938;SDS011;5008;50.656;7.188;2024-02-15T19:39:14;2.37;;;1.70;;
9938;SDS011;5008;50.656;7.188;2024-02-15T19:41:42;3.07;;;2.00;;
9938;SDS011;5008;50.656;7.188;2024-02-15T19:44:09;2.13;;;1.67;;
9938;SDS011;5008;50.656;7.188;2024-02-15T19:46:39;2.73;;;1.90;;
9938;SDS011;5008;50.656;7.188;2024-02-15T19:49:06;3.03;;;1.70;;
9938;SDS011;5008;50.656;7.188;2024-02-15T19:51:35;3.03;;;2.07;;
9938;SDS011;5008;50.656;7.188;2024-02-15T19:54:02;2.13;;;1.90;;
9938;SDS011;5008;50.656;7.188;2024-02-15T19:56:29;3.10;;;2.10;;
9938;SDS011;5008;50.656;7.188;2024-02-15T19:58:57;2.83;;;1.63;;
9938;SDS011;5008;50.656;7.188;2024-02-15T20:01:24;2.27;;;2.07;;
9938;SDS011;5008;50.656;7.188;2024-02-15T20:03:51;1.93;;;1.67;;
9938;SDS011;5008;50.656;7.188;2024-02-15T20:06:18;2.53;;;2.00;;
9938;SDS011;5008;50.656;7.188;2024-02-15T20:08:46;3.00;;;2.07;;
9938;SDS011;5008;50.656;7.188;2024-02-15T20:11:13;2.43;;;1.70;;
9938;SDS011;5008;50.656;7.188;2024-02-15T20:13:40;3.30;;;2.03;;
9938;SDS011;5008;50.656;7.188;2024-02-15T20:16:07;1.63;;;1.50;;
9938;SDS011;5008;50.656;7.188;2024-02-15T20:18:33;4.43;;;2.17;;
9938;SDS011;5008;50.656;7.188;2024-02-15T20:21:02;2.93;;;1.80;;
9938;SDS011;5008;50.656;7.188;2024-02-15T20:23:29;2.27;;;1.83;;
9938;SDS011;5008;50.656;7.188;2024-02-15T20:25:58;2.33;;;1.90;;
9938;SDS011;5008;50.656;7.188;2024-02-15T20:28:25;4.73;;;2.10;;
9938;SDS011;5008;50.656;7.188;2024-02-15T20:30:52;2.70;;;1.70;;
9938;SDS011;5008;50.656;7.188;2024-02-15T20:33:20;1.90;;;1.70;;
9938;SDS011;5008;50.656;7.188;2024-02-15T20:35:48;4.07;;;1.80;;
9938;SDS011;5008;50.656;7.188;2024-02-15T20:38:15;2.00;;;1.80;;
9938;SDS011;5008;50.656;7.188;2024-02-15T20:40:44;2.07;;;1.90;;
9938;SDS011;5008;50.656;7.188;2024-02-15T20:43:12;4.33;;;1.80;;